SWR1AM EDDF-LSZH
Flight info
| Callsign | SWR1AM |
|---|---|
| Flight time | 0h 32m |
| Altitude | 25000 |
| Route | ANEKI2L/18 ANEKI Y163 NEKLO Y171 INKAM T725 LAMGO T721 RILAX RILAX2A |
| Aircraft | A320/M-SDE3FGHIRWY/LB1 |
Departure
| Time | 2026-05-04 17:43 |
|---|---|
| Airport | Frankfurt Main Airport (EDDF) |
Arrival
| Time | 2026-05-04 18:15 |
|---|---|
| Airport | Zürich Airport (LSZH) |
| Time | Latitude | Longitude | Altitude | Speed | Heading |
|---|---|---|---|---|---|
| 2026-05-04 17:17 | 50.04803 | 8.58421 | 366 ft | 0 kts | 160° |
| 2026-05-04 17:31 | 50.04826 | 8.58408 | 363 ft | 4 kts | 161° |
| 2026-05-04 17:31 | 50.04887 | 8.58406 | 360 ft | 0 kts | 249° |
| 2026-05-04 17:34 | 50.04872 | 8.58342 | 363 ft | 8 kts | 249° |
| 2026-05-04 17:34 | 50.04846 | 8.58233 | 359 ft | 13 kts | 249° |
| 2026-05-04 17:35 | 50.04661 | 8.57698 | 363 ft | 23 kts | 251° |
| 2026-05-04 17:35 | 50.04542 | 8.57206 | 362 ft | 26 kts | 250° |
| 2026-05-04 17:35 | 50.04478 | 8.56939 | 363 ft | 26 kts | 249° |
| 2026-05-04 17:36 | 50.04424 | 8.56662 | 360 ft | 28 kts | 249° |
| 2026-05-04 17:36 | 50.04343 | 8.56376 | 359 ft | 29 kts | 250° |
| 2026-05-04 17:36 | 50.04271 | 8.56072 | 354 ft | 30 kts | 249° |
| 2026-05-04 17:36 | 50.04197 | 8.55761 | 358 ft | 31 kts | 250° |
| 2026-05-04 17:37 | 50.04121 | 8.55441 | 356 ft | 32 kts | 250° |
| 2026-05-04 17:37 | 50.04045 | 8.55125 | 356 ft | 31 kts | 250° |
| 2026-05-04 17:37 | 50.03967 | 8.54807 | 356 ft | 32 kts | 249° |
| 2026-05-04 17:37 | 50.03889 | 8.54477 | 351 ft | 32 kts | 249° |
| 2026-05-04 17:38 | 50.03787 | 8.54168 | 349 ft | 32 kts | 247° |
| 2026-05-04 17:38 | 50.03711 | 8.53850 | 348 ft | 31 kts | 250° |
| 2026-05-04 17:38 | 50.03633 | 8.53532 | 340 ft | 32 kts | 249° |
| 2026-05-04 17:38 | 50.03554 | 8.53206 | 338 ft | 33 kts | 250° |
| 2026-05-04 17:39 | 50.03436 | 8.52741 | 333 ft | 6 kts | 249° |
| 2026-05-04 17:39 | 50.03434 | 8.52733 | 332 ft | 0 kts | 249° |
| 2026-05-04 17:41 | 50.03424 | 8.52695 | 335 ft | 8 kts | 249° |
| 2026-05-04 17:41 | 50.03401 | 8.52601 | 333 ft | 6 kts | 227° |
| 2026-05-04 17:41 | 50.03371 | 8.52594 | 334 ft | 0 kts | 179° |
| 2026-05-04 17:42 | 50.03336 | 8.52595 | 335 ft | 22 kts | 180° |
| 2026-05-04 17:42 | 50.02862 | 8.52599 | 333 ft | 112 kts | 180° |
| 2026-05-04 17:42 | 50.01820 | 8.52611 | 352 ft | 181 kts | 179° |
| 2026-05-04 17:43 | 50.00569 | 8.52656 | 1215 ft | 180 kts | 179° |
| 2026-05-04 17:43 | 49.99276 | 8.52724 | 2032 ft | 196 kts | 178° |
| 2026-05-04 17:43 | 49.97856 | 8.52817 | 2422 ft | 216 kts | 178° |
| 2026-05-04 17:43 | 49.96286 | 8.52926 | 2913 ft | 232 kts | 178° |
| 2026-05-04 17:44 | 49.94671 | 8.53037 | 3792 ft | 233 kts | 178° |
| 2026-05-04 17:44 | 49.93052 | 8.53146 | 4695 ft | 233 kts | 178° |
| 2026-05-04 17:44 | 49.91437 | 8.53255 | 5619 ft | 232 kts | 178° |
| 2026-05-04 17:44 | 49.89822 | 8.53369 | 6525 ft | 232 kts | 178° |
| 2026-05-04 17:45 | 49.88209 | 8.53482 | 7363 ft | 233 kts | 179° |
| 2026-05-04 17:45 | 49.86606 | 8.53590 | 8176 ft | 235 kts | 179° |
| 2026-05-04 17:45 | 49.84965 | 8.53699 | 9009 ft | 237 kts | 179° |
| 2026-05-04 17:45 | 49.83307 | 8.53807 | 9837 ft | 240 kts | 180° |
| 2026-05-04 17:46 | 49.81629 | 8.53916 | 10577 ft | 243 kts | 180° |
| 2026-05-04 17:46 | 49.79931 | 8.54028 | 11306 ft | 246 kts | 180° |
| 2026-05-04 17:46 | 49.78212 | 8.54128 | 12041 ft | 248 kts | 184° |
| 2026-05-04 17:46 | 49.76440 | 8.53934 | 12447 ft | 266 kts | 187° |
| 2026-05-04 17:47 | 49.74510 | 8.53675 | 12671 ft | 290 kts | 187° |
| 2026-05-04 17:47 | 49.72418 | 8.53389 | 12856 ft | 313 kts | 187° |
| 2026-05-04 17:47 | 49.70162 | 8.53081 | 13002 ft | 337 kts | 187° |
| 2026-05-04 17:47 | 49.67753 | 8.52755 | 13163 ft | 357 kts | 187° |
| 2026-05-04 17:48 | 49.65242 | 8.52426 | 13656 ft | 366 kts | 186° |
| 2026-05-04 17:48 | 49.62684 | 8.52095 | 14211 ft | 371 kts | 186° |
| 2026-05-04 17:48 | 49.60103 | 8.51760 | 14802 ft | 375 kts | 186° |
| 2026-05-04 17:48 | 49.57494 | 8.51421 | 15403 ft | 378 kts | 186° |
| 2026-05-04 17:49 | 49.54858 | 8.51075 | 16006 ft | 381 kts | 186° |
| 2026-05-04 17:49 | 49.52203 | 8.50728 | 16605 ft | 385 kts | 186° |
| 2026-05-04 17:49 | 49.49529 | 8.50378 | 17203 ft | 388 kts | 186° |
| 2026-05-04 17:49 | 49.46821 | 8.50022 | 17799 ft | 391 kts | 186° |
| 2026-05-04 17:50 | 49.44095 | 8.49659 | 18362 ft | 395 kts | 186° |
| 2026-05-04 17:50 | 49.41345 | 8.49297 | 18863 ft | 398 kts | 186° |
| 2026-05-04 17:50 | 49.38580 | 8.48936 | 19375 ft | 400 kts | 186° |
| 2026-05-04 17:50 | 49.35799 | 8.48577 | 19883 ft | 402 kts | 186° |
| 2026-05-04 17:51 | 49.33019 | 8.48505 | 20371 ft | 405 kts | 179° |
| 2026-05-04 17:51 | 49.30191 | 8.48713 | 20867 ft | 407 kts | 179° |
| 2026-05-04 17:51 | 49.27356 | 8.48942 | 21326 ft | 409 kts | 179° |
| 2026-05-04 17:51 | 49.24502 | 8.49185 | 21784 ft | 411 kts | 178° |
| 2026-05-04 17:52 | 49.21635 | 8.49436 | 22237 ft | 413 kts | 178° |
| 2026-05-04 17:52 | 49.18759 | 8.49688 | 22666 ft | 415 kts | 179° |
| 2026-05-04 17:52 | 49.15868 | 8.49938 | 23084 ft | 417 kts | 179° |
| 2026-05-04 17:52 | 49.12969 | 8.50184 | 23495 ft | 419 kts | 179° |
| 2026-05-04 17:53 | 49.10050 | 8.50429 | 23843 ft | 421 kts | 179° |
| 2026-05-04 17:53 | 49.07120 | 8.50672 | 24177 ft | 422 kts | 179° |
| 2026-05-04 17:53 | 49.04178 | 8.50914 | 24506 ft | 424 kts | 179° |
| 2026-05-04 17:53 | 49.01223 | 8.51161 | 24830 ft | 425 kts | 179° |
| 2026-05-04 17:54 | 48.98264 | 8.51409 | 24964 ft | 427 kts | 179° |
| 2026-05-04 17:54 | 48.95271 | 8.51655 | 24996 ft | 435 kts | 179° |
| 2026-05-04 17:54 | 48.92241 | 8.51905 | 24997 ft | 437 kts | 179° |
| 2026-05-04 17:54 | 48.89197 | 8.52157 | 24997 ft | 438 kts | 179° |
| 2026-05-04 17:55 | 48.86150 | 8.52411 | 25000 ft | 439 kts | 179° |
| 2026-05-04 17:55 | 48.83104 | 8.52668 | 25002 ft | 439 kts | 179° |
| 2026-05-04 17:55 | 48.80054 | 8.52924 | 25002 ft | 439 kts | 179° |
| 2026-05-04 17:55 | 48.76999 | 8.53178 | 24817 ft | 439 kts | 179° |
| 2026-05-04 17:56 | 48.73979 | 8.53430 | 24578 ft | 442 kts | 179° |
| 2026-05-04 17:56 | 48.70901 | 8.53685 | 24337 ft | 443 kts | 179° |
| 2026-05-04 17:56 | 48.67815 | 8.53939 | 24109 ft | 445 kts | 179° |
| 2026-05-04 17:56 | 48.64716 | 8.54195 | 23877 ft | 446 kts | 179° |
| 2026-05-04 17:57 | 48.61607 | 8.54451 | 23650 ft | 448 kts | 179° |
| 2026-05-04 17:57 | 48.58495 | 8.54702 | 23394 ft | 449 kts | 179° |
| 2026-05-04 17:57 | 48.55377 | 8.54953 | 22954 ft | 448 kts | 179° |
| 2026-05-04 17:57 | 48.52274 | 8.55204 | 21954 ft | 444 kts | 179° |
| 2026-05-04 17:58 | 48.49213 | 8.55456 | 21162 ft | 438 kts | 178° |
| 2026-05-04 17:58 | 48.46188 | 8.55706 | 20357 ft | 433 kts | 178° |
| 2026-05-04 17:58 | 48.43197 | 8.55954 | 19559 ft | 429 kts | 178° |
| 2026-05-04 17:58 | 48.40230 | 8.56195 | 18788 ft | 425 kts | 178° |
| 2026-05-04 17:59 | 48.37287 | 8.56430 | 17987 ft | 422 kts | 178° |
| 2026-05-04 17:59 | 48.34365 | 8.56665 | 17221 ft | 418 kts | 178° |
| 2026-05-04 17:59 | 48.28623 | 8.57133 | 15814 ft | 408 kts | 178° |
| 2026-05-04 18:00 | 48.25804 | 8.57362 | 15143 ft | 404 kts | 178° |
| 2026-05-04 18:00 | 48.23009 | 8.57590 | 14494 ft | 401 kts | 178° |
| 2026-05-04 18:00 | 48.20238 | 8.57812 | 13855 ft | 397 kts | 178° |
| 2026-05-04 18:00 | 48.17490 | 8.57928 | 13187 ft | 393 kts | 182° |
| 2026-05-04 18:01 | 48.14799 | 8.57466 | 12590 ft | 386 kts | 191° |
| 2026-05-04 18:01 | 48.12185 | 8.56679 | 11990 ft | 381 kts | 191° |
| 2026-05-04 18:01 | 48.09604 | 8.55905 | 11616 ft | 382 kts | 191° |
| 2026-05-04 18:02 | 48.04585 | 8.54410 | 11018 ft | 354 kts | 190° |
| 2026-05-04 18:02 | 48.02209 | 8.53701 | 10720 ft | 342 kts | 190° |
| 2026-05-04 18:02 | 47.99912 | 8.53019 | 10436 ft | 331 kts | 190° |
| 2026-05-04 18:02 | 47.97685 | 8.52359 | 10149 ft | 322 kts | 190° |
| 2026-05-04 18:03 | 47.95514 | 8.51718 | 9858 ft | 313 kts | 190° |
| 2026-05-04 18:03 | 47.93413 | 8.51053 | 9542 ft | 305 kts | 192° |
| 2026-05-04 18:03 | 47.91384 | 8.50250 | 9226 ft | 298 kts | 194° |
| 2026-05-04 18:03 | 47.89416 | 8.49385 | 8920 ft | 292 kts | 196° |
| 2026-05-04 18:04 | 47.87492 | 8.48513 | 8611 ft | 286 kts | 196° |
| 2026-05-04 18:04 | 47.85610 | 8.47664 | 8304 ft | 280 kts | 196° |
| 2026-05-04 18:04 | 47.81952 | 8.46049 | 7703 ft | 269 kts | 195° |
| 2026-05-04 18:05 | 47.80223 | 8.45049 | 7519 ft | 267 kts | 212° |
| 2026-05-04 18:05 | 47.78952 | 8.43042 | 7353 ft | 271 kts | 240° |
| 2026-05-04 18:05 | 47.78448 | 8.40347 | 7181 ft | 275 kts | 263° |
| 2026-05-04 18:05 | 47.78325 | 8.37510 | 7059 ft | 276 kts | 264° |
| 2026-05-04 18:06 | 47.78066 | 8.31829 | 7027 ft | 276 kts | 264° |
| 2026-05-04 18:06 | 47.77937 | 8.28978 | 7026 ft | 277 kts | 264° |
| 2026-05-04 18:06 | 47.77738 | 8.26139 | 7026 ft | 274 kts | 253° |
| 2026-05-04 18:07 | 47.76876 | 8.23680 | 7032 ft | 269 kts | 225° |
| 2026-05-04 18:07 | 47.75955 | 8.22461 | 7037 ft | 268 kts | 216° |
| 2026-05-04 18:07 | 47.74480 | 8.20859 | 7030 ft | 255 kts | 214° |
| 2026-05-04 18:07 | 47.72635 | 8.18921 | 7027 ft | 232 kts | 213° |
| 2026-05-04 18:08 | 47.71773 | 8.18013 | 7023 ft | 228 kts | 214° |
| 2026-05-04 18:08 | 47.70350 | 8.17065 | 7028 ft | 225 kts | 189° |
| 2026-05-04 18:08 | 47.68778 | 8.17203 | 6766 ft | 230 kts | 161° |
| 2026-05-04 18:08 | 47.67458 | 8.18488 | 6496 ft | 230 kts | 132° |
| 2026-05-04 18:09 | 47.65796 | 8.22659 | 5947 ft | 240 kts | 121° |
| 2026-05-04 18:09 | 47.64163 | 8.27002 | 5426 ft | 241 kts | 121° |
| 2026-05-04 18:10 | 47.63342 | 8.29165 | 5175 ft | 239 kts | 121° |
| 2026-05-04 18:10 | 47.62539 | 8.31286 | 4950 ft | 233 kts | 121° |
| 2026-05-04 18:10 | 47.61759 | 8.33347 | 4745 ft | 226 kts | 121° |
| 2026-05-04 18:10 | 47.61001 | 8.35351 | 4541 ft | 219 kts | 121° |
| 2026-05-04 18:11 | 47.60174 | 8.37182 | 4328 ft | 209 kts | 135° |
| 2026-05-04 18:11 | 47.59143 | 8.38647 | 4226 ft | 199 kts | 140° |
| 2026-05-04 18:11 | 47.58146 | 8.39998 | 4058 ft | 191 kts | 139° |
| 2026-05-04 18:11 | 47.57183 | 8.41313 | 3837 ft | 187 kts | 138° |
| 2026-05-04 18:12 | 47.56240 | 8.42606 | 3598 ft | 181 kts | 138° |
| 2026-05-04 18:12 | 47.55353 | 8.43823 | 3350 ft | 171 kts | 138° |
| 2026-05-04 18:12 | 47.54505 | 8.44985 | 3163 ft | 162 kts | 138° |
| 2026-05-04 18:12 | 47.53713 | 8.46118 | 2892 ft | 155 kts | 137° |
| 2026-05-04 18:13 | 47.52952 | 8.47193 | 2646 ft | 147 kts | 140° |
| 2026-05-04 18:13 | 47.52196 | 8.48208 | 2486 ft | 152 kts | 141° |
| 2026-05-04 18:13 | 47.50916 | 8.49906 | 2170 ft | 146 kts | 141° |
| 2026-05-04 18:14 | 47.49752 | 8.51522 | 1862 ft | 146 kts | 139° |
| 2026-05-04 18:14 | 47.48979 | 8.52453 | 1733 ft | 141 kts | 151° |
| 2026-05-04 18:14 | 47.48141 | 8.53186 | 1560 ft | 138 kts | 154° |
| 2026-05-04 18:15 | 47.46532 | 8.54309 | 1382 ft | 105 kts | 156° |
| 2026-05-04 18:15 | 47.45546 | 8.54991 | 1402 ft | 27 kts | 154° |
| 2026-05-04 18:15 | 47.45422 | 8.55174 | 1400 ft | 26 kts | 119° |
| 2026-05-04 18:16 | 47.45338 | 8.55395 | 1407 ft | 21 kts | 118° |
| 2026-05-04 18:16 | 47.45277 | 8.55584 | 1406 ft | 19 kts | 100° |
| 2026-05-04 18:16 | 47.45287 | 8.55740 | 1407 ft | 12 kts | 25° |
| 2026-05-04 18:17 | 47.45351 | 8.55755 | 1413 ft | 0 kts | 6° |